sensor_id;sensor_type;location;lat;lon;timestamp;P1;durP1;ratioP1;P2;durP2;ratioP2
8297;SDS011;4187;42.778;23.242;2023-08-06T00:00:52;3.35;;;3.05;;
8297;SDS011;4187;42.778;23.242;2023-08-06T00:03:18;3.78;;;2.95;;
8297;SDS011;4187;42.778;23.242;2023-08-06T00:05:45;4.07;;;2.88;;
8297;SDS011;4187;42.778;23.242;2023-08-06T00:08:13;5.70;;;3.70;;
8297;SDS011;4187;42.778;23.242;2023-08-06T00:10:40;3.58;;;3.28;;
8297;SDS011;4187;42.778;23.242;2023-08-06T00:13:06;3.88;;;3.35;;
8297;SDS011;4187;42.778;23.242;2023-08-06T00:15:33;5.97;;;3.10;;
8297;SDS011;4187;42.778;23.242;2023-08-06T00:18:00;4.20;;;3.22;;
8297;SDS011;4187;42.778;23.242;2023-08-06T00:20:26;8.90;;;4.20;;
8297;SDS011;4187;42.778;23.242;2023-08-06T00:22:53;3.63;;;3.10;;
8297;SDS011;4187;42.778;23.242;2023-08-06T00:25:21;4.97;;;3.20;;
8297;SDS011;4187;42.778;23.242;2023-08-06T00:27:47;4.93;;;3.70;;
8297;SDS011;4187;42.778;23.242;2023-08-06T00:30:14;5.90;;;3.65;;
8297;SDS011;4187;42.778;23.242;2023-08-06T00:32:40;5.72;;;3.50;;
8297;SDS011;4187;42.778;23.242;2023-08-06T00:35:07;4.65;;;3.88;;
8297;SDS011;4187;42.778;23.242;2023-08-06T00:37:33;3.50;;;3.20;;
8297;SDS011;4187;42.778;23.242;2023-08-06T00:40:00;8.88;;;3.83;;
8297;SDS011;4187;42.778;23.242;2023-08-06T00:42:28;8.23;;;3.38;;
8297;SDS011;4187;42.778;23.242;2023-08-06T00:44:55;3.92;;;3.47;;
8297;SDS011;4187;42.778;23.242;2023-08-06T00:47:21;3.38;;;2.97;;
8297;SDS011;4187;42.778;23.242;2023-08-06T00:49:48;5.03;;;3.10;;
8297;SDS011;4187;42.778;23.242;2023-08-06T00:52:15;4.78;;;3.17;;
8297;SDS011;4187;42.778;23.242;2023-08-06T00:54:42;3.97;;;2.80;;
8297;SDS011;4187;42.778;23.242;2023-08-06T00:57:08;4.05;;;3.58;;
8297;SDS011;4187;42.778;23.242;2023-08-06T00:59:37;5.50;;;3.20;;
8297;SDS011;4187;42.778;23.242;2023-08-06T01:02:03;4.70;;;3.00;;
8297;SDS011;4187;42.778;23.242;2023-08-06T01:04:30;6.35;;;3.70;;
8297;SDS011;4187;42.778;23.242;2023-08-06T01:07:01;4.32;;;3.78;;
8297;SDS011;4187;42.778;23.242;2023-08-06T01:09:32;5.43;;;3.67;;
8297;SDS011;4187;42.778;23.242;2023-08-06T01:12:05;4.38;;;3.47;;
8297;SDS011;4187;42.778;23.242;2023-08-06T01:14:33;2.85;;;2.58;;
8297;SDS011;4187;42.778;23.242;2023-08-06T01:17:04;6.13;;;3.28;;
8297;SDS011;4187;42.778;23.242;2023-08-06T01:19:31;3.60;;;3.20;;
8297;SDS011;4187;42.778;23.242;2023-08-06T01:21:59;4.53;;;3.10;;
8297;SDS011;4187;42.778;23.242;2023-08-06T01:24:26;3.17;;;2.85;;
8297;SDS011;4187;42.778;23.242;2023-08-06T01:26:55;4.63;;;3.22;;
8297;SDS011;4187;42.778;23.242;2023-08-06T01:29:26;3.70;;;3.25;;
8297;SDS011;4187;42.778;23.242;2023-08-06T01:31:54;5.03;;;3.15;;
8297;SDS011;4187;42.778;23.242;2023-08-06T01:34:22;5.70;;;3.30;;
8297;SDS011;4187;42.778;23.242;2023-08-06T01:36:49;3.75;;;2.90;;
8297;SDS011;4187;42.778;23.242;2023-08-06T01:39:18;4.10;;;3.10;;
8297;SDS011;4187;42.778;23.242;2023-08-06T01:41:46;3.75;;;3.35;;
8297;SDS011;4187;42.778;23.242;2023-08-06T01:44:12;4.65;;;3.35;;
8297;SDS011;4187;42.778;23.242;2023-08-06T01:46:39;3.70;;;3.10;;
8297;SDS011;4187;42.778;23.242;2023-08-06T01:49:05;5.35;;;3.00;;
8297;SDS011;4187;42.778;23.242;2023-08-06T01:51:32;3.72;;;3.10;;
8297;SDS011;4187;42.778;23.242;2023-08-06T01:53:59;3.30;;;2.42;;
8297;SDS011;4187;42.778;23.242;2023-08-06T01:56:27;3.55;;;3.22;;
8297;SDS011;4187;42.778;23.242;2023-08-06T01:58:53;6.78;;;3.20;;
8297;SDS011;4187;42.778;23.242;2023-08-06T02:01:20;3.97;;;2.72;;
8297;SDS011;4187;42.778;23.242;2023-08-06T02:03:47;5.25;;;3.13;;
8297;SDS011;4187;42.778;23.242;2023-08-06T02:06:13;3.45;;;3.00;;
8297;SDS011;4187;42.778;23.242;2023-08-06T02:08:40;3.40;;;3.10;;
8297;SDS011;4187;42.778;23.242;2023-08-06T02:11:06;3.00;;;2.75;;
8297;SDS011;4187;42.778;23.242;2023-08-06T02:13:34;3.35;;;2.70;;
8297;SDS011;4187;42.778;23.242;2023-08-06T02:16:01;2.95;;;2.75;;
8297;SDS011;4187;42.778;23.242;2023-08-06T02:18:27;4.93;;;3.10;;
8297;SDS011;4187;42.778;23.242;2023-08-06T02:20:54;3.72;;;2.88;;
8297;SDS011;4187;42.778;23.242;2023-08-06T02:23:21;5.13;;;2.90;;
8297;SDS011;4187;42.778;23.242;2023-08-06T02:25:48;3.45;;;2.75;;
8297;SDS011;4187;42.778;23.242;2023-08-06T02:28:14;3.08;;;2.78;;
8297;SDS011;4187;42.778;23.242;2023-08-06T02:30:50;3.58;;;2.92;;
8297;SDS011;4187;42.778;23.242;2023-08-06T02:33:17;3.10;;;2.80;;
8297;SDS011;4187;42.778;23.242;2023-08-06T02:35:43;4.03;;;3.47;;
8297;SDS011;4187;42.778;23.242;2023-08-06T02:38:10;4.15;;;3.25;;
8297;SDS011;4187;42.778;23.242;2023-08-06T02:40:36;4.20;;;3.55;;
8297;SDS011;4187;42.778;23.242;2023-08-06T02:43:03;3.47;;;2.92;;
8297;SDS011;4187;42.778;23.242;2023-08-06T02:45:29;6.63;;;3.53;;
8297;SDS011;4187;42.778;23.242;2023-08-06T02:47:57;3.63;;;3.20;;
8297;SDS011;4187;42.778;23.242;2023-08-06T02:50:24;4.28;;;3.10;;
8297;SDS011;4187;42.778;23.242;2023-08-06T02:52:50;4.72;;;3.50;;
8297;SDS011;4187;42.778;23.242;2023-08-06T02:55:17;4.00;;;3.05;;
8297;SDS011;4187;42.778;23.242;2023-08-06T02:57:44;4.88;;;2.90;;
8297;SDS011;4187;42.778;23.242;2023-08-06T03:00:10;3.10;;;2.80;;
8297;SDS011;4187;42.778;23.242;2023-08-06T03:02:37;4.22;;;3.55;;
8297;SDS011;4187;42.778;23.242;2023-08-06T03:05:05;3.75;;;3.10;;
8297;SDS011;4187;42.778;23.242;2023-08-06T03:07:32;3.03;;;2.72;;
8297;SDS011;4187;42.778;23.242;2023-08-06T03:10:01;3.65;;;3.08;;
8297;SDS011;4187;42.778;23.242;2023-08-06T03:12:27;7.13;;;3.42;;
8297;SDS011;4187;42.778;23.242;2023-08-06T03:14:54;3.55;;;2.60;;
8297;SDS011;4187;42.778;23.242;2023-08-06T03:17:20;3.50;;;3.20;;
8297;SDS011;4187;42.778;23.242;2023-08-06T03:19:47;3.65;;;2.90;;
8297;SDS011;4187;42.778;23.242;2023-08-06T03:22:15;4.10;;;3.70;;
8297;SDS011;4187;42.778;23.242;2023-08-06T03:24:41;4.30;;;3.88;;
8297;SDS011;4187;42.778;23.242;2023-08-06T03:27:08;4.03;;;3.60;;
8297;SDS011;4187;42.778;23.242;2023-08-06T03:29:34;4.88;;;3.50;;
8297;SDS011;4187;42.778;23.242;2023-08-06T03:32:01;3.78;;;3.47;;
8297;SDS011;4187;42.778;23.242;2023-08-06T03:34:28;4.22;;;3.25;;
8297;SDS011;4187;42.778;23.242;2023-08-06T03:36:54;3.33;;;3.03;;
8297;SDS011;4187;42.778;23.242;2023-08-06T03:39:23;4.00;;;3.40;;
8297;SDS011;4187;42.778;23.242;2023-08-06T03:41:49;6.65;;;3.90;;
8297;SDS011;4187;42.778;23.242;2023-08-06T03:44:16;4.88;;;3.65;;
8297;SDS011;4187;42.778;23.242;2023-08-06T03:46:42;4.13;;;3.30;;
8297;SDS011;4187;42.778;23.242;2023-08-06T03:49:09;4.20;;;3.70;;
8297;SDS011;4187;42.778;23.242;2023-08-06T03:51:35;4.63;;;3.70;;
8297;SDS011;4187;42.778;23.242;2023-08-06T03:54:02;6.40;;;3.70;;
8297;SDS011;4187;42.778;23.242;2023-08-06T03:56:30;4.18;;;3.78;;
8297;SDS011;4187;42.778;23.242;2023-08-06T03:58:56;3.28;;;2.97;;
8297;SDS011;4187;42.778;23.242;2023-08-06T04:01:23;3.70;;;3.25;;
8297;SDS011;4187;42.778;23.242;2023-08-06T04:03:49;4.45;;;3.50;;
8297;SDS011;4187;42.778;23.242;2023-08-06T04:06:16;4.05;;;3.03;;
8297;SDS011;4187;42.778;23.242;2023-08-06T04:08:43;3.55;;;3.25;;
8297;SDS011;4187;42.778;23.242;2023-08-06T04:11:09;3.22;;;2.92;;
8297;SDS011;4187;42.778;23.242;2023-08-06T04:13:38;3.38;;;3.08;;
8297;SDS011;4187;42.778;23.242;2023-08-06T04:16:08;3.95;;;3.10;;
8297;SDS011;4187;42.778;23.242;2023-08-06T04:18:34;5.78;;;3.55;;
8297;SDS011;4187;42.778;23.242;2023-08-06T04:21:01;3.70;;;3.20;;
8297;SDS011;4187;42.778;23.242;2023-08-06T04:23:27;6.72;;;3.08;;
8297;SDS011;4187;42.778;23.242;2023-08-06T04:25:56;3.33;;;2.97;;
8297;SDS011;4187;42.778;23.242;2023-08-06T04:28:22;3.25;;;2.80;;
8297;SDS011;4187;42.778;23.242;2023-08-06T04:30:50;3.15;;;2.85;;
8297;SDS011;4187;42.778;23.242;2023-08-06T04:33:18;3.20;;;2.90;;
8297;SDS011;4187;42.778;23.242;2023-08-06T04:35:45;5.18;;;3.00;;
8297;SDS011;4187;42.778;23.242;2023-08-06T04:38:12;4.95;;;2.58;;
8297;SDS011;4187;42.778;23.242;2023-08-06T04:40:38;4.00;;;2.85;;
8297;SDS011;4187;42.778;23.242;2023-08-06T04:43:05;3.40;;;2.60;;
8297;SDS011;4187;42.778;23.242;2023-08-06T04:45:31;4.28;;;2.33;;
8297;SDS011;4187;42.778;23.242;2023-08-06T04:48:00;2.80;;;2.55;;
8297;SDS011;4187;42.778;23.242;2023-08-06T04:50:26;3.13;;;2.90;;
8297;SDS011;4187;42.778;23.242;2023-08-06T04:52:53;4.20;;;2.75;;
8297;SDS011;4187;42.778;23.242;2023-08-06T04:55:19;3.15;;;2.90;;
8297;SDS011;4187;42.778;23.242;2023-08-06T04:57:46;3.90;;;2.90;;
8297;SDS011;4187;42.778;23.242;2023-08-06T05:00:14;3.70;;;3.08;;
8297;SDS011;4187;42.778;23.242;2023-08-06T05:02:40;3.63;;;2.92;;
8297;SDS011;4187;42.778;23.242;2023-08-06T05:05:08;4.05;;;3.13;;
8297;SDS011;4187;42.778;23.242;2023-08-06T05:07:35;3.90;;;3.50;;
8297;SDS011;4187;42.778;23.242;2023-08-06T05:10:01;4.75;;;4.35;;
8297;SDS011;4187;42.778;23.242;2023-08-06T05:12:29;4.30;;;3.35;;
8297;SDS011;4187;42.778;23.242;2023-08-06T05:14:56;3.35;;;2.90;;
8297;SDS011;4187;42.778;23.242;2023-08-06T05:17:22;5.43;;;3.35;;
8297;SDS011;4187;42.778;23.242;2023-08-06T05:19:49;5.65;;;3.50;;
8297;SDS011;4187;42.778;23.242;2023-08-06T05:22:17;3.50;;;3.15;;
8297;SDS011;4187;42.778;23.242;2023-08-06T05:24:43;4.15;;;2.80;;
8297;SDS011;4187;42.778;23.242;2023-08-06T05:27:10;3.40;;;2.80;;
8297;SDS011;4187;42.778;23.242;2023-08-06T05:29:37;5.47;;;3.10;;
8297;SDS011;4187;42.778;23.242;2023-08-06T05:32:03;2.75;;;2.55;;
8297;SDS011;4187;42.778;23.242;2023-08-06T05:34:30;3.80;;;3.28;;
8297;SDS011;4187;42.778;23.242;2023-08-06T05:36:57;3.58;;;3.28;;
8297;SDS011;4187;42.778;23.242;2023-08-06T05:39:24;2.83;;;2.63;;
8297;SDS011;4187;42.778;23.242;2023-08-06T05:41:51;2.92;;;2.72;;
8297;SDS011;4187;42.778;23.242;2023-08-06T05:44:17;4.40;;;2.60;;
8297;SDS011;4187;42.778;23.242;2023-08-06T05:46:44;2.80;;;2.60;;
8297;SDS011;4187;42.778;23.242;2023-08-06T05:49:10;2.47;;;2.20;;
8297;SDS011;4187;42.778;23.242;2023-08-06T05:51:38;2.17;;;1.98;;
8297;SDS011;4187;42.778;23.242;2023-08-06T05:54:05;3.70;;;2.42;;
8297;SDS011;4187;42.778;23.242;2023-08-06T05:56:33;2.83;;;2.53;;
8297;SDS011;4187;42.778;23.242;2023-08-06T05:58:59;4.22;;;2.40;;
8297;SDS011;4187;42.778;23.242;2023-08-06T06:01:26;4.00;;;2.30;;
8297;SDS011;4187;42.778;23.242;2023-08-06T06:03:52;2.53;;;2.22;;
8297;SDS011;4187;42.778;23.242;2023-08-06T06:06:19;3.05;;;2.10;;
8297;SDS011;4187;42.778;23.242;2023-08-06T06:08:45;2.05;;;1.85;;
8297;SDS011;4187;42.778;23.242;2023-08-06T06:11:12;5.40;;;2.33;;
8297;SDS011;4187;42.778;23.242;2023-08-06T06:13:40;3.47;;;2.30;;
8297;SDS011;4187;42.778;23.242;2023-08-06T06:16:06;4.57;;;2.00;;
8297;SDS011;4187;42.778;23.242;2023-08-06T06:18:33;2.00;;;1.80;;
8297;SDS011;4187;42.778;23.242;2023-08-06T06:20:59;2.17;;;1.98;;
8297;SDS011;4187;42.778;23.242;2023-08-06T06:23:26;2.10;;;2.00;;
8297;SDS011;4187;42.778;23.242;2023-08-06T06:25:52;2.22;;;1.70;;
8297;SDS011;4187;42.778;23.242;2023-08-06T06:28:19;2.72;;;2.10;;
8297;SDS011;4187;42.778;23.242;2023-08-06T06:30:47;2.05;;;1.90;;
8297;SDS011;4187;42.778;23.242;2023-08-06T06:33:14;1.95;;;1.75;;
8297;SDS011;4187;42.778;23.242;2023-08-06T06:35:40;2.92;;;1.88;;
8297;SDS011;4187;42.778;23.242;2023-08-06T06:38:07;2.17;;;1.98;;
8297;SDS011;4187;42.778;23.242;2023-08-06T06:40:33;1.90;;;1.80;;
8297;SDS011;4187;42.778;23.242;2023-08-06T06:42:59;2.10;;;1.77;;
8297;SDS011;4187;42.778;23.242;2023-08-06T06:45:26;2.22;;;2.03;;
8297;SDS011;4187;42.778;23.242;2023-08-06T06:47:54;2.08;;;1.98;;
8297;SDS011;4187;42.778;23.242;2023-08-06T06:50:20;3.13;;;1.92;;
8297;SDS011;4187;42.778;23.242;2023-08-06T06:52:47;1.70;;;1.60;;
8297;SDS011;4187;42.778;23.242;2023-08-06T06:55:13;1.92;;;1.80;;
8297;SDS011;4187;42.778;23.242;2023-08-06T06:57:40;2.10;;;1.80;;
8297;SDS011;4187;42.778;23.242;2023-08-06T07:00:07;1.70;;;1.60;;
8297;SDS011;4187;42.778;23.242;2023-08-06T07:02:34;2.83;;;1.83;;
8297;SDS011;4187;42.778;23.242;2023-08-06T07:05:02;2.05;;;1.85;;
8297;SDS011;4187;42.778;23.242;2023-08-06T07:07:28;3.17;;;2.20;;
8297;SDS011;4187;42.778;23.242;2023-08-06T07:09:55;2.88;;;2.40;;
8297;SDS011;4187;42.778;23.242;2023-08-06T07:12:21;3.42;;;2.05;;
8297;SDS011;4187;42.778;23.242;2023-08-06T07:14:49;3.72;;;1.90;;
8297;SDS011;4187;42.778;23.242;2023-08-06T07:17:15;3.28;;;2.05;;
8297;SDS011;4187;42.778;23.242;2023-08-06T07:19:42;2.15;;;1.95;;
8297;SDS011;4187;42.778;23.242;2023-08-06T07:22:10;2.13;;;1.92;;
8297;SDS011;4187;42.778;23.242;2023-08-06T07:24:37;4.88;;;2.33;;
8297;SDS011;4187;42.778;23.242;2023-08-06T07:27:03;2.72;;;2.45;;
8297;SDS011;4187;42.778;23.242;2023-08-06T07:29:32;3.03;;;2.28;;
8297;SDS011;4187;42.778;23.242;2023-08-06T07:32:00;2.88;;;2.60;;
8297;SDS011;4187;42.778;23.242;2023-08-06T07:34:27;2.97;;;2.58;;
8297;SDS011;4187;42.778;23.242;2023-08-06T07:36:54;3.05;;;2.80;;
8297;SDS011;4187;42.778;23.242;2023-08-06T07:39:22;3.50;;;2.20;;
8297;SDS011;4187;42.778;23.242;2023-08-06T07:41:49;3.90;;;2.45;;
8297;SDS011;4187;42.778;23.242;2023-08-06T07:44:15;3.17;;;2.47;;
8297;SDS011;4187;42.778;23.242;2023-08-06T07:46:42;3.10;;;2.80;;
8297;SDS011;4187;42.778;23.242;2023-08-06T07:49:09;4.32;;;2.65;;
8297;SDS011;4187;42.778;23.242;2023-08-06T07:51:36;2.78;;;2.45;;
8297;SDS011;4187;42.778;23.242;2023-08-06T07:54:03;4.60;;;2.63;;
8297;SDS011;4187;42.778;23.242;2023-08-06T07:56:31;2.80;;;2.60;;
8297;SDS011;4187;42.778;23.242;2023-08-06T07:58:57;5.80;;;3.20;;
8297;SDS011;4187;42.778;23.242;2023-08-06T08:01:24;2.90;;;2.50;;
8297;SDS011;4187;42.778;23.242;2023-08-06T08:03:51;3.45;;;2.60;;
8297;SDS011;4187;42.778;23.242;2023-08-06T08:06:17;2.75;;;2.53;;
8297;SDS011;4187;42.778;23.242;2023-08-06T08:08:44;2.35;;;2.15;;
8297;SDS011;4187;42.778;23.242;2023-08-06T08:11:11;3.13;;;2.40;;
8297;SDS011;4187;42.778;23.242;2023-08-06T08:13:39;2.20;;;2.00;;
8297;SDS011;4187;42.778;23.242;2023-08-06T08:16:05;4.55;;;2.60;;
8297;SDS011;4187;42.778;23.242;2023-08-06T08:18:32;2.63;;;2.33;;
8297;SDS011;4187;42.778;23.242;2023-08-06T08:20:58;2.95;;;2.40;;
8297;SDS011;4187;42.778;23.242;2023-08-06T08:23:25;3.00;;;2.67;;
8297;SDS011;4187;42.778;23.242;2023-08-06T08:25:51;3.33;;;2.58;;
8297;SDS011;4187;42.778;23.242;2023-08-06T08:28:24;2.63;;;2.42;;
8297;SDS011;4187;42.778;23.242;2023-08-06T08:30:52;2.15;;;1.95;;
8297;SDS011;4187;42.778;23.242;2023-08-06T08:33:18;4.45;;;2.35;;
8297;SDS011;4187;42.778;23.242;2023-08-06T08:35:45;2.75;;;2.47;;
8297;SDS011;4187;42.778;23.242;2023-08-06T08:38:12;2.33;;;2.10;;
8297;SDS011;4187;42.778;23.242;2023-08-06T08:40:41;3.03;;;2.47;;
8297;SDS011;4187;42.778;23.242;2023-08-06T08:43:09;3.55;;;2.63;;
8297;SDS011;4187;42.778;23.242;2023-08-06T08:45:36;3.70;;;2.90;;
8297;SDS011;4187;42.778;23.242;2023-08-06T08:48:06;4.18;;;2.63;;
8297;SDS011;4187;42.778;23.242;2023-08-06T08:50:33;3.75;;;2.72;;
8297;SDS011;4187;42.778;23.242;2023-08-06T08:53:00;2.67;;;2.40;;
8297;SDS011;4187;42.778;23.242;2023-08-06T08:55:27;3.45;;;2.58;;
8297;SDS011;4187;42.778;23.242;2023-08-06T08:57:54;2.85;;;2.42;;
8297;SDS011;4187;42.778;23.242;2023-08-06T09:00:21;3.70;;;3.00;;
8297;SDS011;4187;42.778;23.242;2023-08-06T09:02:47;2.83;;;2.63;;
8297;SDS011;4187;42.778;23.242;2023-08-06T09:05:16;4.30;;;2.60;;
8297;SDS011;4187;42.778;23.242;2023-08-06T09:07:48;2.78;;;2.58;;
8297;SDS011;4187;42.778;23.242;2023-08-06T09:10:16;4.88;;;3.20;;
8297;SDS011;4187;42.778;23.242;2023-08-06T09:12:42;4.25;;;2.65;;
8297;SDS011;4187;42.778;23.242;2023-08-06T09:15:09;4.60;;;3.42;;
8297;SDS011;4187;42.778;23.242;2023-08-06T09:17:36;2.90;;;2.70;;
8297;SDS011;4187;42.778;23.242;2023-08-06T09:20:10;3.95;;;2.63;;
8297;SDS011;4187;42.778;23.242;2023-08-06T09:22:38;4.40;;;3.05;;
8297;SDS011;4187;42.778;23.242;2023-08-06T09:25:06;4.55;;;2.80;;
8297;SDS011;4187;42.778;23.242;2023-08-06T09:27:35;3.65;;;2.45;;
8297;SDS011;4187;42.778;23.242;2023-08-06T09:30:01;5.22;;;3.05;;
8297;SDS011;4187;42.778;23.242;2023-08-06T09:32:29;3.83;;;2.92;;
8297;SDS011;4187;42.778;23.242;2023-08-06T09:35:13;4.60;;;2.80;;
8297;SDS011;4187;42.778;23.242;2023-08-06T09:37:42;3.20;;;2.90;;
8297;SDS011;4187;42.778;23.242;2023-08-06T09:40:23;2.92;;;2.70;;
8297;SDS011;4187;42.778;23.242;2023-08-06T09:42:50;3.40;;;2.03;;
8297;SDS011;4187;42.778;23.242;2023-08-06T09:45:16;3.50;;;2.65;;
8297;SDS011;4187;42.778;23.242;2023-08-06T09:47:43;2.67;;;2.35;;
8297;SDS011;4187;42.778;23.242;2023-08-06T09:50:14;2.40;;;2.20;;
8297;SDS011;4187;42.778;23.242;2023-08-06T09:52:42;2.92;;;2.08;;
8297;SDS011;4187;42.778;23.242;2023-08-06T09:55:10;2.42;;;2.08;;
8297;SDS011;4187;42.778;23.242;2023-08-06T09:57:37;3.00;;;2.50;;
8297;SDS011;4187;42.778;23.242;2023-08-06T10:00:04;3.50;;;2.60;;
8297;SDS011;4187;42.778;23.242;2023-08-06T10:02:33;2.90;;;2.60;;
8297;SDS011;4187;42.778;23.242;2023-08-06T10:05:00;4.20;;;2.20;;
8297;SDS011;4187;42.778;23.242;2023-08-06T10:07:26;3.30;;;2.60;;
8297;SDS011;4187;42.778;23.242;2023-08-06T10:09:55;3.13;;;2.85;;
8297;SDS011;4187;42.778;23.242;2023-08-06T10:12:21;4.57;;;2.50;;
8297;SDS011;4187;42.778;23.242;2023-08-06T10:14:50;3.35;;;2.30;;
8297;SDS011;4187;42.778;23.242;2023-08-06T10:17:17;3.42;;;2.63;;
8297;SDS011;4187;42.778;23.242;2023-08-06T10:19:43;2.58;;;2.22;;
8297;SDS011;4187;42.778;23.242;2023-08-06T10:22:11;3.38;;;2.40;;
8297;SDS011;4187;42.778;23.242;2023-08-06T10:27:28;2.45;;;2.25;;
8297;SDS011;4187;42.778;23.242;2023-08-06T10:29:55;2.38;;;2.17;;
8297;SDS011;4187;42.778;23.242;2023-08-06T10:32:21;2.55;;;2.30;;
8297;SDS011;4187;42.778;23.242;2023-08-06T10:34:54;2.70;;;2.50;;
8297;SDS011;4187;42.778;23.242;2023-08-06T10:37:22;2.50;;;2.30;;
8297;SDS011;4187;42.778;23.242;2023-08-06T10:39:49;3.33;;;2.30;;
8297;SDS011;4187;42.778;23.242;2023-08-06T10:42:19;2.47;;;2.28;;
8297;SDS011;4187;42.778;23.242;2023-08-06T10:47:28;3.25;;;2.95;;
8297;SDS011;4187;42.778;23.242;2023-08-06T10:49:55;3.97;;;2.92;;
8297;SDS011;4187;42.778;23.242;2023-08-06T10:52:22;3.45;;;3.15;;
8297;SDS011;4187;42.778;23.242;2023-08-06T10:54:48;3.33;;;3.03;;
8297;SDS011;4187;42.778;23.242;2023-08-06T10:57:15;3.65;;;3.20;;
8297;SDS011;4187;42.778;23.242;2023-08-06T10:59:41;3.40;;;3.10;;
8297;SDS011;4187;42.778;23.242;2023-08-06T11:02:08;3.75;;;3.45;;
8297;SDS011;4187;42.778;23.242;2023-08-06T11:04:36;6.30;;;3.50;;
8297;SDS011;4187;42.778;23.242;2023-08-06T11:07:03;3.80;;;3.20;;
8297;SDS011;4187;42.778;23.242;2023-08-06T11:09:29;6.28;;;3.70;;
8297;SDS011;4187;42.778;23.242;2023-08-06T11:11:56;4.95;;;4.00;;
8297;SDS011;4187;42.778;23.242;2023-08-06T11:14:23;4.72;;;4.22;;
8297;SDS011;4187;42.778;23.242;2023-08-06T11:16:50;5.05;;;4.65;;
8297;SDS011;4187;42.778;23.242;2023-08-06T11:19:16;5.00;;;4.60;;
8297;SDS011;4187;42.778;23.242;2023-08-06T11:21:44;7.18;;;4.25;;
8297;SDS011;4187;42.778;23.242;2023-08-06T11:24:12;4.88;;;4.47;;
8297;SDS011;4187;42.778;23.242;2023-08-06T11:26:39;5.10;;;4.57;;
8297;SDS011;4187;42.778;23.242;2023-08-06T11:29:06;4.75;;;4.32;;
8297;SDS011;4187;42.778;23.242;2023-08-06T11:31:32;4.88;;;4.40;;
8297;SDS011;4187;42.778;23.242;2023-08-06T11:33:59;5.53;;;4.50;;
8297;SDS011;4187;42.778;23.242;2023-08-06T11:36:29;4.80;;;4.38;;
8297;SDS011;4187;42.778;23.242;2023-08-06T11:38:58;5.50;;;4.15;;
8297;SDS011;4187;42.778;23.242;2023-08-06T11:41:24;4.95;;;4.55;;
8297;SDS011;4187;42.778;23.242;2023-08-06T11:43:51;4.45;;;4.10;;
8297;SDS011;4187;42.778;23.242;2023-08-06T11:46:18;4.82;;;4.43;;
8297;SDS011;4187;42.778;23.242;2023-08-06T11:48:51;4.70;;;3.97;;
8297;SDS011;4187;42.778;23.242;2023-08-06T11:51:18;5.18;;;4.40;;
8297;SDS011;4187;42.778;23.242;2023-08-06T11:53:48;6.15;;;4.53;;
8297;SDS011;4187;42.778;23.242;2023-08-06T11:56:16;4.95;;;4.55;;
8297;SDS011;4187;42.778;23.242;2023-08-06T11:58:42;6.00;;;5.22;;
8297;SDS011;4187;42.778;23.242;2023-08-06T12:01:09;5.22;;;4.65;;
8297;SDS011;4187;42.778;23.242;2023-08-06T12:03:38;6.80;;;4.95;;
8297;SDS011;4187;42.778;23.242;2023-08-06T12:06:05;5.32;;;4.82;;
8297;SDS011;4187;42.778;23.242;2023-08-06T12:08:32;5.45;;;4.90;;
8297;SDS011;4187;42.778;23.242;2023-08-06T12:10:58;6.05;;;4.63;;
8297;SDS011;4187;42.778;23.242;2023-08-06T12:13:26;5.55;;;5.05;;
8297;SDS011;4187;42.778;23.242;2023-08-06T12:15:53;6.20;;;5.00;;
8297;SDS011;4187;42.778;23.242;2023-08-06T12:18:22;6.47;;;5.03;;
8297;SDS011;4187;42.778;23.242;2023-08-06T12:20:48;5.60;;;5.10;;
8297;SDS011;4187;42.778;23.242;2023-08-06T12:23:15;4.68;;;4.28;;
8297;SDS011;4187;42.778;23.242;2023-08-06T12:25:42;5.65;;;4.00;;
8297;SDS011;4187;42.778;23.242;2023-08-06T12:28:09;4.32;;;3.92;;
8297;SDS011;4187;42.778;23.242;2023-08-06T12:30:38;6.53;;;4.07;;
8297;SDS011;4187;42.778;23.242;2023-08-06T12:33:06;6.88;;;4.38;;
8297;SDS011;4187;42.778;23.242;2023-08-06T12:35:33;5.13;;;4.63;;
8297;SDS011;4187;42.778;23.242;2023-08-06T12:38:00;4.93;;;3.78;;
8297;SDS011;4187;42.778;23.242;2023-08-06T12:40:26;5.07;;;4.57;;
8297;SDS011;4187;42.778;23.242;2023-08-06T12:42:53;4.28;;;3.97;;
8297;SDS011;4187;42.778;23.242;2023-08-06T12:45:19;4.10;;;3.78;;
8297;SDS011;4187;42.778;23.242;2023-08-06T12:47:48;5.38;;;4.07;;
8297;SDS011;4187;42.778;23.242;2023-08-06T12:50:15;5.45;;;4.95;;
8297;SDS011;4187;42.778;23.242;2023-08-06T12:52:42;5.57;;;4.97;;
8297;SDS011;4187;42.778;23.242;2023-08-06T12:55:08;6.10;;;4.40;;
8297;SDS011;4187;42.778;23.242;2023-08-06T12:57:35;4.95;;;4.30;;
8297;SDS011;4187;42.778;23.242;2023-08-06T13:00:02;6.85;;;4.10;;
8297;SDS011;4187;42.778;23.242;2023-08-06T13:02:30;4.63;;;4.22;;
8297;SDS011;4187;42.778;23.242;2023-08-06T13:04:58;6.30;;;4.20;;
8297;SDS011;4187;42.778;23.242;2023-08-06T13:07:24;5.18;;;3.75;;
8297;SDS011;4187;42.778;23.242;2023-08-06T13:09:51;7.75;;;4.20;;
8297;SDS011;4187;42.778;23.242;2023-08-06T13:12:18;5.82;;;3.40;;
8297;SDS011;4187;42.778;23.242;2023-08-06T13:14:45;6.72;;;4.35;;
8297;SDS011;4187;42.778;23.242;2023-08-06T13:17:12;4.07;;;3.55;;
8297;SDS011;4187;42.778;23.242;2023-08-06T13:19:38;4.03;;;3.67;;
8297;SDS011;4187;42.778;23.242;2023-08-06T13:22:06;7.40;;;4.40;;
8297;SDS011;4187;42.778;23.242;2023-08-06T13:24:34;6.53;;;4.35;;
8297;SDS011;4187;42.778;23.242;2023-08-06T13:27:01;4.53;;;4.13;;
8297;SDS011;4187;42.778;23.242;2023-08-06T13:29:28;6.18;;;4.78;;
8297;SDS011;4187;42.778;23.242;2023-08-06T13:31:55;5.20;;;4.18;;
8297;SDS011;4187;42.778;23.242;2023-08-06T13:34:21;4.78;;;4.20;;
8297;SDS011;4187;42.778;23.242;2023-08-06T13:36:48;4.15;;;3.75;;
8297;SDS011;4187;42.778;23.242;2023-08-06T13:39:15;4.18;;;3.80;;
8297;SDS011;4187;42.778;23.242;2023-08-06T13:41:42;4.28;;;3.92;;
8297;SDS011;4187;42.778;23.242;2023-08-06T13:44:09;5.82;;;3.88;;
8297;SDS011;4187;42.778;23.242;2023-08-06T13:46:36;4.43;;;3.95;;
8297;SDS011;4187;42.778;23.242;2023-08-06T13:49:02;4.13;;;3.70;;
8297;SDS011;4187;42.778;23.242;2023-08-06T13:51:29;4.43;;;3.33;;
8297;SDS011;4187;42.778;23.242;2023-08-06T13:53:55;4.35;;;3.75;;
8297;SDS011;4187;42.778;23.242;2023-08-06T13:56:24;6.93;;;3.92;;
8297;SDS011;4187;42.778;23.242;2023-08-06T13:58:50;5.15;;;3.58;;
8297;SDS011;4187;42.778;23.242;2023-08-06T14:01:17;6.22;;;3.70;;
8297;SDS011;4187;42.778;23.242;2023-08-06T14:03:44;4.25;;;3.95;;
8297;SDS011;4187;42.778;23.242;2023-08-06T14:06:10;4.05;;;3.70;;
8297;SDS011;4187;42.778;23.242;2023-08-06T14:08:37;3.60;;;3.30;;
8297;SDS011;4187;42.778;23.242;2023-08-06T14:11:05;5.43;;;3.53;;
8297;SDS011;4187;42.778;23.242;2023-08-06T14:13:33;4.57;;;4.13;;
8297;SDS011;4187;42.778;23.242;2023-08-06T14:15:59;4.40;;;3.72;;
8297;SDS011;4187;42.778;23.242;2023-08-06T14:18:26;4.18;;;3.30;;
8297;SDS011;4187;42.778;23.242;2023-08-06T14:20:52;4.20;;;3.60;;
8297;SDS011;4187;42.778;23.242;2023-08-06T14:23:19;5.70;;;3.60;;
8297;SDS011;4187;42.778;23.242;2023-08-06T14:25:46;5.13;;;3.70;;
8297;SDS011;4187;42.778;23.242;2023-08-06T14:28:12;3.80;;;3.50;;
8297;SDS011;4187;42.778;23.242;2023-08-06T14:30:40;4.82;;;3.53;;
8297;SDS011;4187;42.778;23.242;2023-08-06T14:33:07;5.10;;;4.45;;
8297;SDS011;4187;42.778;23.242;2023-08-06T14:35:34;5.03;;;4.57;;
8297;SDS011;4187;42.778;23.242;2023-08-06T14:38:00;6.80;;;4.28;;
8297;SDS011;4187;42.778;23.242;2023-08-06T14:40:27;4.57;;;3.92;;
8297;SDS011;4187;42.778;23.242;2023-08-06T14:42:58;4.65;;;3.78;;
8297;SDS011;4187;42.778;23.242;2023-08-06T14:45:25;5.80;;;3.90;;
8297;SDS011;4187;42.778;23.242;2023-08-06T14:47:53;5.45;;;4.90;;
8297;SDS011;4187;42.778;23.242;2023-08-06T14:50:19;5.97;;;4.15;;
8297;SDS011;4187;42.778;23.242;2023-08-06T14:52:46;4.50;;;3.83;;
8297;SDS011;4187;42.778;23.242;2023-08-06T14:55:17;4.28;;;3.85;;
8297;SDS011;4187;42.778;23.242;2023-08-06T14:57:43;3.40;;;3.10;;
8297;SDS011;4187;42.778;23.242;2023-08-06T15:00:10;3.75;;;3.33;;
8297;SDS011;4187;42.778;23.242;2023-08-06T15:02:37;4.90;;;3.45;;
8297;SDS011;4187;42.778;23.242;2023-08-06T15:05:05;5.95;;;3.42;;